createdAt,value
2022-10-05T00:02:03.858Z,14.70
2022-10-05T00:04:57.325Z,14.70
2022-10-05T00:07:45.767Z,14.70
2022-10-05T00:10:34.237Z,14.70
2022-10-05T00:13:24.643Z,14.70
2022-10-05T00:16:17.927Z,14.70
2022-10-05T00:19:07.542Z,14.70
2022-10-05T00:21:58.145Z,14.70
2022-10-05T00:24:46.869Z,14.70
2022-10-05T00:27:37.871Z,14.70
2022-10-05T00:30:29.899Z,14.70
2022-10-05T00:33:20.112Z,14.70
2022-10-05T00:36:09.196Z,14.70
2022-10-05T00:38:57.566Z,14.70
2022-10-05T00:42:18.494Z,14.70
2022-10-05T00:45:08.970Z,14.70
2022-10-05T00:48:03.763Z,14.80
2022-10-05T00:51:06.239Z,14.80
2022-10-05T00:54:12.614Z,14.80
2022-10-05T00:57:20.609Z,14.80
2022-10-05T01:00:10.114Z,14.80
2022-10-05T01:03:01.948Z,14.80
2022-10-05T01:06:01.298Z,14.80
2022-10-05T01:08:54.110Z,14.70
2022-10-05T01:11:44.720Z,14.70
2022-10-05T01:14:38.316Z,14.60
2022-10-05T01:17:29.213Z,14.60
2022-10-05T01:20:28.029Z,14.60
2022-10-05T01:23:47.215Z,14.60
2022-10-05T01:27:10.724Z,14.60
2022-10-05T01:30:04.029Z,14.60
2022-10-05T01:32:56.218Z,14.50
2022-10-05T01:35:50.868Z,14.50
2022-10-05T01:38:45.980Z,14.50
2022-10-05T01:41:37.004Z,14.50
2022-10-05T01:44:27.525Z,14.50
2022-10-05T01:47:20.928Z,14.70
2022-10-05T01:50:13.382Z,14.50
2022-10-05T01:53:06.465Z,14.50
2022-10-05T01:55:57.759Z,14.50
2022-10-05T01:58:52.367Z,14.50
2022-10-05T02:01:46.272Z,14.60
2022-10-05T02:07:52.300Z,14.60
2022-10-05T02:10:43.280Z,14.60
2022-10-05T02:13:35.353Z,14.60
2022-10-05T02:16:26.917Z,14.60
2022-10-05T02:19:19.205Z,14.60
2022-10-05T02:22:11.434Z,14.60
2022-10-05T02:25:03.667Z,14.70
2022-10-05T02:27:54.961Z,14.60
2022-10-05T02:30:48.180Z,14.60
2022-10-05T02:33:36.665Z,14.70
2022-10-05T02:36:33.223Z,14.60
2022-10-05T02:39:28.192Z,14.60
2022-10-05T02:42:22.163Z,14.60
2022-10-05T02:45:17.038Z,14.70
2022-10-05T02:48:10.262Z,14.60
2022-10-05T02:51:03.421Z,14.60
2022-10-05T02:54:03.780Z,14.60
2022-10-05T02:56:57.360Z,14.60
2022-10-05T02:59:48.409Z,14.60
2022-10-05T03:02:41.595Z,14.60
2022-10-05T03:05:33.038Z,14.60
2022-10-05T03:08:24.979Z,14.60
2022-10-05T03:11:22.662Z,14.60
2022-10-05T03:14:15.344Z,14.60
2022-10-05T03:17:07.905Z,14.70
2022-10-05T03:20:12.902Z,14.70
2022-10-05T03:23:02.928Z,14.70
2022-10-05T03:26:07.032Z,14.90
2022-10-05T03:29:00.041Z,14.90
2022-10-05T03:31:54.242Z,15.00
2022-10-05T03:34:46.390Z,15.10
2022-10-05T03:37:42.429Z,15.20
2022-10-05T03:40:34.898Z,15.30
2022-10-05T03:43:35.925Z,15.50
2022-10-05T03:46:32.119Z,15.60
2022-10-05T03:49:27.777Z,15.70
2022-10-05T03:52:18.495Z,15.80
2022-10-05T03:55:16.413Z,15.90
2022-10-05T03:58:12.942Z,15.90
2022-10-05T04:01:03.810Z,16.00
2022-10-05T04:03:54.320Z,16.00
2022-10-05T04:06:47.654Z,16.00
2022-10-05T04:09:38.091Z,15.90
2022-10-05T04:12:28.829Z,15.90
2022-10-05T04:15:22.645Z,15.90
2022-10-05T04:18:20.177Z,15.80
2022-10-05T04:21:10.996Z,15.80
2022-10-05T04:24:04.429Z,15.80
2022-10-05T04:26:56.182Z,15.70
2022-10-05T04:29:48.877Z,15.70
2022-10-05T04:32:38.636Z,15.60
2022-10-05T04:35:50.437Z,15.60
2022-10-05T04:38:48.010Z,15.60
2022-10-05T04:41:53.875Z,15.60
2022-10-05T04:45:03.816Z,15.50
2022-10-05T04:48:12.139Z,15.50
2022-10-05T04:51:11.459Z,15.50
2022-10-05T04:54:06.251Z,15.40
2022-10-05T04:56:58.098Z,15.40
2022-10-05T05:00:07.145Z,15.30
2022-10-05T05:03:32.959Z,15.30
2022-10-05T05:06:31.520Z,15.20
2022-10-05T05:10:02.233Z,15.10
2022-10-05T05:12:59.313Z,15.10
2022-10-05T05:15:50.728Z,15.10
2022-10-05T05:19:21.185Z,15.10
2022-10-05T05:22:15.075Z,15.10
2022-10-05T05:25:20.992Z,15.20
2022-10-05T05:28:19.676Z,15.20
2022-10-05T05:31:13.373Z,15.20
2022-10-05T05:34:06.130Z,15.20
2022-10-05T05:36:56.843Z,15.20
2022-10-05T05:39:51.169Z,15.10
2022-10-05T05:42:52.142Z,15.10
2022-10-05T05:45:43.170Z,15.20
2022-10-05T05:48:38.953Z,15.20
2022-10-05T05:51:31.462Z,15.20
2022-10-05T05:54:27.513Z,15.20
2022-10-05T05:57:18.580Z,15.20
2022-10-05T06:00:08.869Z,15.20
2022-10-05T06:03:07.931Z,15.20
2022-10-05T06:05:40.275Z,15.30
2022-10-05T06:08:17.001Z,15.30
2022-10-05T06:10:50.819Z,15.30
2022-10-05T06:13:24.261Z,15.30
2022-10-05T06:15:55.254Z,15.30
2022-10-05T06:18:24.709Z,15.30
2022-10-05T06:20:58.873Z,15.30
2022-10-05T06:23:31.337Z,15.40
2022-10-05T06:26:30.940Z,15.40
2022-10-05T06:29:01.828Z,15.40
2022-10-05T06:31:48.293Z,15.50
2022-10-05T06:34:29.695Z,15.50
2022-10-05T06:37:01.013Z,15.60
2022-10-05T06:40:09.993Z,15.70
2022-10-05T06:43:11.029Z,15.90
2022-10-05T06:46:06.539Z,16.20
2022-10-05T06:49:15.007Z,16.50
2022-10-05T06:52:25.639Z,16.90
2022-10-05T06:55:14.016Z,17.30
2022-10-05T06:58:11.620Z,17.70
2022-10-05T07:00:42.029Z,18.20
2022-10-05T07:03:18.901Z,18.70
2022-10-05T07:05:58.779Z,19.10
2022-10-05T07:08:38.407Z,19.60
2022-10-05T07:11:12.390Z,20.00
2022-10-05T07:14:14.677Z,20.40
2022-10-05T07:20:16.897Z,21.30
2022-10-05T07:23:05.249Z,21.80
2022-10-05T07:25:37.516Z,22.10
2022-10-05T07:28:08.634Z,22.40
2022-10-05T07:30:42.762Z,22.60
2022-10-05T07:33:15.301Z,22.70
2022-10-05T07:36:21.780Z,22.80
2022-10-05T07:38:54.378Z,22.80
2022-10-05T07:41:31.216Z,22.60
2022-10-05T07:44:11.653Z,22.50
2022-10-05T07:46:52.721Z,22.30
2022-10-05T07:49:37.387Z,22.10
2022-10-05T07:52:08.712Z,21.90
2022-10-05T07:54:46.812Z,21.70
2022-10-05T07:57:22.376Z,21.50
2022-10-05T07:59:56.723Z,21.30
2022-10-05T08:02:28.428Z,21.10
2022-10-05T08:05:00.303Z,21.00
2022-10-05T08:07:28.949Z,20.90
2022-10-05T08:10:00.670Z,20.80
2022-10-05T08:12:37.145Z,20.70
2022-10-05T08:15:10.666Z,20.60
2022-10-05T08:17:49.551Z,20.50
2022-10-05T08:20:27.162Z,20.50
2022-10-05T08:22:59.632Z,20.50
2022-10-05T08:25:34.848Z,20.70
2022-10-05T08:28:07.900Z,20.90
2022-10-05T08:30:56.907Z,21.20
2022-10-05T08:33:25.371Z,21.50
2022-10-05T08:36:00.429Z,21.90
2022-10-05T08:38:32.820Z,22.30
2022-10-05T08:41:27.238Z,22.60
2022-10-05T08:44:50.458Z,22.90
2022-10-05T08:47:28.132Z,23.30
2022-10-05T08:50:25.333Z,23.50
2022-10-05T08:53:22.060Z,23.70
2022-10-05T08:56:30.361Z,23.90
2022-10-05T08:59:12.055Z,24.00
2022-10-05T09:01:53.551Z,24.00
2022-10-05T09:04:31.013Z,24.00
2022-10-05T09:07:12.676Z,24.10
2022-10-05T09:10:57.988Z,24.10
2022-10-05T09:14:13.451Z,24.10
2022-10-05T09:17:25.601Z,24.30
2022-10-05T09:20:16.134Z,24.30
2022-10-05T09:23:01.428Z,24.30
2022-10-05T09:25:43.972Z,24.40
2022-10-05T09:28:25.749Z,24.40
2022-10-05T09:31:11.373Z,24.40
2022-10-05T09:34:23.431Z,24.40
2022-10-05T09:37:29.927Z,24.40
2022-10-05T09:40:34.407Z,24.50
2022-10-05T09:43:26.377Z,24.50
2022-10-05T09:46:35.674Z,24.50
2022-10-05T09:49:42.504Z,24.40
2022-10-05T09:52:25.752Z,24.40
2022-10-05T09:55:45.738Z,24.50
2022-10-05T09:59:00.032Z,24.60
2022-10-05T10:01:37.762Z,24.70
2022-10-05T10:04:30.346Z,24.80
2022-10-05T10:07:44.141Z,24.90
2022-10-05T10:11:07.227Z,25.00
2022-10-05T10:13:56.894Z,25.00
2022-10-05T10:16:36.963Z,25.00
2022-10-05T10:19:31.400Z,25.00
2022-10-05T10:22:21.188Z,24.90
2022-10-05T10:25:01.004Z,25.00
2022-10-05T10:27:54.169Z,25.00
2022-10-05T10:31:00.159Z,25.00
2022-10-05T10:34:03.536Z,25.10
2022-10-05T10:36:50.430Z,25.00
2022-10-05T10:39:21.947Z,24.90
2022-10-05T10:42:04.920Z,24.90
2022-10-05T10:45:12.803Z,24.70
2022-10-05T10:47:54.505Z,24.70
2022-10-05T10:51:03.741Z,24.60
2022-10-05T10:54:12.168Z,24.70
2022-10-05T10:57:03.048Z,24.90
2022-10-05T11:00:21.901Z,25.00
2022-10-05T11:03:46.031Z,25.20
2022-10-05T11:06:25.772Z,25.40
2022-10-05T11:09:18.966Z,25.50
2022-10-05T11:12:17.746Z,25.50
2022-10-05T11:15:30.034Z,25.60
2022-10-05T11:18:12.417Z,25.70
2022-10-05T11:21:16.566Z,25.80
2022-10-05T11:24:28.475Z,26.00
2022-10-05T11:27:30.895Z,26.10
2022-10-05T11:30:15.097Z,26.10
2022-10-05T11:33:26.276Z,26.20
2022-10-05T11:36:35.800Z,26.10
2022-10-05T11:39:30.338Z,26.10
2022-10-05T11:42:44.817Z,26.20
2022-10-05T11:45:22.721Z,26.30
2022-10-05T11:48:17.751Z,26.40
2022-10-05T11:50:54.279Z,26.50
2022-10-05T11:53:25.505Z,26.60
2022-10-05T11:56:03.093Z,26.70
2022-10-05T11:58:34.663Z,26.80
2022-10-05T12:01:06.977Z,26.90
2022-10-05T12:03:44.322Z,27.00
2022-10-05T12:06:32.569Z,27.10
2022-10-05T12:09:12.039Z,27.20
2022-10-05T12:11:57.998Z,27.30
2022-10-05T12:14:33.360Z,27.40
2022-10-05T12:17:04.774Z,27.50
2022-10-05T12:19:36.481Z,27.60
2022-10-05T12:22:11.300Z,27.60
2022-10-05T12:25:01.536Z,27.60
2022-10-05T12:27:35.017Z,27.50
2022-10-05T12:30:07.096Z,27.50
2022-10-05T12:32:38.333Z,27.50
2022-10-05T12:35:11.647Z,27.50
2022-10-05T12:37:44.301Z,27.50
2022-10-05T12:40:23.500Z,27.50
2022-10-05T12:43:03.031Z,27.60
2022-10-05T12:45:45.917Z,27.70
2022-10-05T12:48:25.102Z,27.80
2022-10-05T12:50:56.560Z,27.80
2022-10-05T12:53:34.490Z,27.90
2022-10-05T12:56:05.782Z,27.90
2022-10-05T12:58:43.339Z,27.90
2022-10-05T13:01:21.366Z,28.00
2022-10-05T13:03:53.608Z,28.00
2022-10-05T13:06:26.159Z,27.90
2022-10-05T13:08:57.395Z,27.80
2022-10-05T13:11:31.483Z,27.80
2022-10-05T13:14:09.468Z,27.80
2022-10-05T13:16:41.290Z,27.70
2022-10-05T13:19:23.809Z,27.70
2022-10-05T13:22:24.991Z,27.70
2022-10-05T13:25:02.534Z,27.70
2022-10-05T13:27:31.836Z,27.70
2022-10-05T13:30:04.641Z,27.70
2022-10-05T13:32:36.781Z,27.70
2022-10-05T13:35:23.302Z,27.70
2022-10-05T13:37:59.793Z,27.70
2022-10-05T13:40:34.034Z,27.70
2022-10-05T13:43:05.153Z,27.70
2022-10-05T13:45:40.215Z,27.80
2022-10-05T13:48:19.436Z,27.80
2022-10-05T13:50:54.261Z,27.80
2022-10-05T13:53:26.919Z,27.90
2022-10-05T13:55:58.182Z,27.90
2022-10-05T13:58:33.894Z,28.00
2022-10-05T14:01:04.557Z,28.10
2022-10-05T14:03:34.937Z,28.20
2022-10-05T14:06:04.409Z,28.20
2022-10-05T14:08:35.067Z,28.30
2022-10-05T14:11:21.903Z,28.30
2022-10-05T14:13:50.057Z,28.40
2022-10-05T14:16:24.840Z,28.50
2022-10-05T14:19:00.085Z,28.40
2022-10-05T14:21:30.936Z,28.50
2022-10-05T14:24:32.059Z,28.50
2022-10-05T14:27:20.861Z,28.50
2022-10-05T14:29:57.891Z,28.60
2022-10-05T14:32:28.040Z,28.60
2022-10-05T14:35:14.839Z,28.60
2022-10-05T14:37:51.204Z,28.60
2022-10-05T14:40:26.159Z,28.60
2022-10-05T14:42:54.247Z,28.60
2022-10-05T14:45:23.588Z,28.60
2022-10-05T14:47:56.140Z,28.60
2022-10-05T14:50:29.464Z,28.60
2022-10-05T14:53:17.501Z,28.60
2022-10-05T14:56:01.206Z,28.50
2022-10-05T14:58:46.741Z,28.50
2022-10-05T15:01:18.533Z,28.50
2022-10-05T15:03:52.121Z,28.50
2022-10-05T15:06:26.821Z,28.50
2022-10-05T15:09:17.592Z,28.50
2022-10-05T15:11:50.351Z,28.40
2022-10-05T15:14:21.376Z,28.40
2022-10-05T15:16:52.761Z,28.40
2022-10-05T15:19:25.362Z,28.40
2022-10-05T15:22:15.019Z,28.40
2022-10-05T15:24:46.640Z,28.40
2022-10-05T15:27:21.677Z,28.40
2022-10-05T15:29:59.576Z,28.40
2022-10-05T15:32:42.062Z,28.40
2022-10-05T15:35:36.709Z,28.40
2022-10-05T15:38:13.771Z,28.30
2022-10-05T15:40:45.359Z,28.30
2022-10-05T15:43:16.034Z,28.30
2022-10-05T15:45:53.068Z,28.20
2022-10-05T15:48:28.726Z,28.20
2022-10-05T15:51:01.855Z,28.10
2022-10-05T15:53:44.554Z,28.00
2022-10-05T15:56:18.398Z,28.00
2022-10-05T15:58:56.212Z,27.90
2022-10-05T16:01:40.768Z,27.80
2022-10-05T16:04:15.543Z,27.80
2022-10-05T16:07:06.895Z,27.70
2022-10-05T16:09:43.375Z,27.70
2022-10-05T16:12:29.923Z,27.70
2022-10-05T16:15:22.103Z,27.60
2022-10-05T16:18:18.585Z,27.60
2022-10-05T16:20:50.988Z,27.50
2022-10-05T16:23:28.085Z,27.50
2022-10-05T16:26:13.196Z,27.40
2022-10-05T16:28:49.857Z,27.30
2022-10-05T16:31:20.096Z,27.20
2022-10-05T16:33:57.825Z,27.10
2022-10-05T16:36:36.067Z,27.10
2022-10-05T16:39:10.588Z,27.00
2022-10-05T16:41:42.638Z,26.90
2022-10-05T16:44:16.408Z,26.80
2022-10-05T16:46:48.348Z,26.70
2022-10-05T16:49:25.156Z,26.60
2022-10-05T16:51:57.819Z,26.50
2022-10-05T16:54:29.375Z,26.40
2022-10-05T16:57:00.155Z,26.30
2022-10-05T17:00:08.885Z,26.20
2022-10-05T17:03:11.978Z,26.00
2022-10-05T17:06:13.441Z,26.00
2022-10-05T17:09:12.762Z,25.80
2022-10-05T17:11:54.911Z,25.60
2022-10-05T17:14:35.122Z,25.50
2022-10-05T17:17:31.963Z,25.40
2022-10-05T17:20:20.278Z,25.20
2022-10-05T17:22:52.195Z,25.00
2022-10-05T17:25:25.179Z,24.90
2022-10-05T17:27:55.551Z,24.70
2022-10-05T17:30:46.424Z,24.60
2022-10-05T17:33:24.782Z,24.50
2022-10-05T17:36:16.865Z,24.50
2022-10-05T17:38:52.426Z,24.40
2022-10-05T17:41:25.677Z,24.40
2022-10-05T17:44:23.089Z,24.30
2022-10-05T17:46:52.686Z,24.30
2022-10-05T17:49:46.766Z,24.20
2022-10-05T17:52:41.057Z,24.10
2022-10-05T17:55:47.771Z,24.10
2022-10-05T17:59:01.917Z,24.00
2022-10-05T18:01:36.320Z,24.00
2022-10-05T18:04:39.876Z,23.90
2022-10-05T18:07:19.903Z,23.90
2022-10-05T18:10:16.254Z,23.90
2022-10-05T18:12:47.086Z,23.80
2022-10-05T18:15:46.344Z,23.80
2022-10-05T18:18:57.026Z,23.80
2022-10-05T18:21:39.403Z,23.70
2022-10-05T18:24:53.072Z,23.70
2022-10-05T18:27:50.802Z,23.70
2022-10-05T18:30:21.785Z,23.70
2022-10-05T18:33:42.497Z,23.60
2022-10-05T18:36:21.933Z,23.60
2022-10-05T18:38:56.000Z,23.60
2022-10-05T18:41:33.248Z,23.50
2022-10-05T18:44:16.408Z,23.50
2022-10-05T18:46:48.077Z,23.50
2022-10-05T18:49:30.748Z,23.50
2022-10-05T18:52:03.714Z,23.40
2022-10-05T18:54:55.751Z,23.30
2022-10-05T18:57:49.904Z,23.30
2022-10-05T19:00:19.721Z,23.20
2022-10-05T19:02:50.551Z,23.20
2022-10-05T19:08:21.690Z,23.10
2022-10-05T19:10:52.693Z,23.10
2022-10-05T19:13:31.680Z,23.00
2022-10-05T19:16:10.113Z,23.00
2022-10-05T19:18:50.795Z,22.90
2022-10-05T19:21:26.299Z,22.90
2022-10-05T19:24:33.737Z,22.80
2022-10-05T19:27:07.357Z,22.80
2022-10-05T19:29:53.763Z,22.80
2022-10-05T19:32:29.724Z,22.70
2022-10-05T19:35:10.253Z,22.70
2022-10-05T19:37:45.912Z,22.80
2022-10-05T19:40:19.226Z,22.60
2022-10-05T19:43:14.196Z,22.80
2022-10-05T19:45:44.617Z,22.60
2022-10-05T19:48:23.282Z,22.50
2022-10-05T19:50:54.846Z,22.50
2022-10-05T19:53:27.706Z,22.50
2022-10-05T19:55:57.095Z,22.50
2022-10-05T19:58:27.115Z,22.50
2022-10-05T20:00:59.697Z,22.50
2022-10-05T20:03:46.436Z,22.50
2022-10-05T20:06:34.878Z,22.60
2022-10-05T20:09:24.585Z,22.60
2022-10-05T20:12:15.166Z,22.60
2022-10-05T20:15:26.519Z,22.60
2022-10-05T20:18:55.749Z,22.60
2022-10-05T20:21:47.576Z,22.60
2022-10-05T20:24:35.975Z,22.70
2022-10-05T20:27:46.588Z,22.50
2022-10-05T20:30:34.942Z,22.50
2022-10-05T20:33:26.953Z,22.50
2022-10-05T20:36:15.326Z,22.50
2022-10-05T20:39:03.640Z,22.50
2022-10-05T20:41:51.991Z,22.50
2022-10-05T20:44:41.661Z,22.50
2022-10-05T20:47:30.026Z,22.20
2022-10-05T20:50:18.783Z,22.50
2022-10-05T20:53:11.560Z,22.40
2022-10-05T20:56:02.349Z,22.50
2022-10-05T20:58:50.715Z,22.40
2022-10-05T21:01:40.399Z,22.40
2022-10-05T21:04:40.289Z,22.40
2022-10-05T21:07:29.500Z,22.50
2022-10-05T21:10:17.896Z,22.50
2022-10-05T21:13:06.254Z,22.50
2022-10-05T21:15:56.535Z,22.50
2022-10-05T21:18:47.266Z,22.50
2022-10-05T21:21:35.639Z,22.50
2022-10-05T21:24:23.985Z,22.50
2022-10-05T21:27:12.307Z,22.50
2022-10-05T21:30:00.727Z,22.50
2022-10-05T21:32:49.176Z,22.50
2022-10-05T21:35:38.921Z,22.50
2022-10-05T21:38:27.522Z,22.50
2022-10-05T21:41:16.137Z,22.50
2022-10-05T21:44:06.167Z,22.50
2022-10-05T21:46:55.204Z,22.50
2022-10-05T21:49:43.536Z,22.50
2022-10-05T21:52:33.239Z,22.40
2022-10-05T21:55:21.585Z,22.40
2022-10-05T21:58:09.961Z,22.30
2022-10-05T22:00:58.319Z,22.30
2022-10-05T22:03:46.745Z,22.30
2022-10-05T22:06:35.217Z,22.20
2022-10-05T22:09:24.944Z,22.20
2022-10-05T22:12:13.302Z,22.20
2022-10-05T22:15:01.667Z,22.10
2022-10-05T22:17:50.228Z,22.10
2022-10-05T22:20:38.611Z,22.10
2022-10-05T22:23:26.961Z,22.10
2022-10-05T22:26:18.086Z,22.10
2022-10-05T22:29:06.439Z,22.10
2022-10-05T22:31:56.300Z,22.00
2022-10-05T22:34:44.932Z,22.00
2022-10-05T22:37:37.640Z,22.00
2022-10-05T22:40:25.965Z,22.00
2022-10-05T22:43:16.225Z,22.00
2022-10-05T22:46:10.142Z,22.00
2022-10-05T22:48:58.598Z,22.00
2022-10-05T22:51:48.076Z,22.00
2022-10-05T22:54:37.431Z,22.00
2022-10-05T22:57:25.905Z,22.00
2022-10-05T23:00:16.361Z,22.00
2022-10-05T23:03:04.755Z,22.00
2022-10-05T23:05:58.101Z,22.00
2022-10-05T23:08:46.660Z,22.00
2022-10-05T23:11:35.008Z,22.00
2022-10-05T23:14:23.543Z,21.90
2022-10-05T23:17:13.239Z,21.90
2022-10-05T23:20:01.588Z,21.80
2022-10-05T23:22:49.951Z,21.80
2022-10-05T23:25:38.342Z,21.90
2022-10-05T23:28:27.793Z,21.80
2022-10-05T23:31:18.934Z,21.70
2022-10-05T23:34:08.689Z,21.70
2022-10-05T23:36:57.046Z,21.70
2022-10-05T23:39:45.432Z,21.70
2022-10-05T23:42:33.770Z,21.70
2022-10-05T23:45:22.068Z,21.70
2022-10-05T23:48:10.418Z,21.70
2022-10-05T23:51:00.323Z,21.70
2022-10-05T23:53:48.729Z,21.70
2022-10-05T23:56:37.115Z,21.70
2022-10-05T23:59:25.464Z,21.70
